Surface/Precipitation History
06/20/2018 10:15  to  6/21/2018 10:15
Change End Date:
Date/Time
(MDT)
Sf
Temp Chem Water Layer Surface Precipitation
Sfc Pvt Sub Frz Factor Pct Dpth DpthThk IcePct Cond Salin FI Type Intens Accum Rate
06/21/2018 10:10 Dry 80.8F - 59F - - - - - - 35 mhos 2275 - None None - -
06/21/2018 10:04 Dry 79.3F - 59F - - - - - - 36 mhos 2321 - None None - -
06/21/2018 09:55 Dry 78.1F - 59F - - - - - - 36 mhos 2364 - None None - -
06/21/2018 09:54 Dry 77.9F - 59F - - - - - - 36 mhos 2367 - None None - -
06/21/2018 09:44 Dry 76.8F - 59F - - - - - - 36 mhos 2407 - None None - -
06/21/2018 09:40 Dry 76.3F - 59F - - - - - - 36 mhos 2436 - None None - -
06/21/2018 09:34 Dry 75.6F - 59F - - - - - - 36 mhos 2454 - None None - -
06/21/2018 09:25 Dry 73.9F - 59F - - - - - - 36 mhos 2492 - None None - -
06/21/2018 09:24 Dry 73.6F - 59F - - - - - - 36 mhos 2517 - None None - -
06/21/2018 09:14 Dry 71.1F - 59F - - - - - - 36 mhos 2583 - None None - -
06/21/2018 09:10 Dry 70.2F - 59F - - - - - - 37 mhos 2622 - None None - -
06/21/2018 09:04 Dry 68.9F - 59F - - - - - - 36 mhos 2636 - None None - -
06/21/2018 08:55 Dry 66.9F - 59F - - - - - - 37 mhos 2710 - None None - -
06/21/2018 08:54 Dry 66.7F - 59F - - - - - - 37 mhos 2715 - None None - -
06/21/2018 08:44 Dry 63.7F - 59F - - - - - - 36 mhos 2746 - None None - -
Date/Time
(MDT)
Sf
Temp Chem Water Layer Surface Precipitation
Sfc Pvt Sub Frz Factor Pct Dpth DpthThk IcePct Cond Salin FI Type Intens Accum Rate
06/21/2018 08:40 Dry 62.1F - 59F - - - - - - 36 mhos 2813 - None None - -
06/21/2018 08:34 Dry 61.9F - 59F - - - - - - 36 mhos 2822 - None None - -
06/21/2018 08:25 Dry 60.3F - 59F - - - - - - 36 mhos 2811 - None None - -
06/21/2018 08:24 Dry 60.6F - 59F - - - - - - 36 mhos 2802 - None None - -
06/21/2018 08:14 Dry 59.0F - 59F - - - - - - 35 mhos 2793 - None None - -
06/21/2018 08:10 Dry 58.3F - 59F - - - - - - 34 mhos 2779 - None None - -
06/21/2018 08:03 Dry 57.2F - 59F - - - - - - 34 mhos 2795 - None None - -
06/21/2018 07:55 Dry 55.4F - 59F - - - - - - 33 mhos 2759 - None None - -
06/21/2018 07:53 Dry 55.2F - 59F - - - - - - 33 mhos 2746 - None None - -
06/21/2018 07:43 Dry 53.8F - 60F - - - - - - 32 mhos 2676 - None None - -
06/21/2018 07:40 Dry 53.1F - 60F - - - - - - 31 mhos 2631 - None None - -
06/21/2018 07:33 Dry 52.2F - 60F - - - - - - 31 mhos 2613 - None None - -
06/21/2018 07:25 Dry 50.7F - 60F - - - - - - 28 mhos 2440 - None None - -
06/21/2018 07:23 Trace Moisture 50.5F - 60F - 95 - - - - 28 mhos 2445 - None None - -
06/21/2018 07:13 Trace Moisture 49.1F - 60F - 95 - - - - 29 mhos 2575 - None None - -
Date/Time
(MDT)
Sf
Temp Chem Water Layer Surface Precipitation
Sfc Pvt Sub Frz Factor Pct Dpth DpthThk IcePct Cond Salin FI Type Intens Accum Rate
06/21/2018 07:10 Trace Moisture 48.7F - 60F - 95 - - - - 29 mhos 2602 - None None - -
06/21/2018 07:03 Trace Moisture 48.0F - 60F - 95 - - - - 29 mhos 2550 - None None - -
06/21/2018 06:55 Trace Moisture 47.3F - 60F - 95 - - - - 26 mhos 2319 - None None - -
06/21/2018 06:53 Trace Moisture 47.1F - 60F - 95 - - - - 26 mhos 2312 - None None - -
06/21/2018 06:43 Trace Moisture 46.0F - 60F - 90 - - - - 25 mhos 2253 - None None - -
06/21/2018 06:40 Trace Moisture 45.7F - 60F - 90 - - - - 26 mhos 2342 - None None - -
06/21/2018 06:33 Trace Moisture 45.1F - 60F - 95 - - - - 28 mhos 2559 - None None - -
06/21/2018 06:25 Trace Moisture 44.8F - 60F - 95 - - - - 31 mhos 2921 - None None - -
06/21/2018 06:23 Trace Moisture 44.4F - 60F - 95 - - - - 32 mhos 2988 - None None - -
06/21/2018 06:13 Trace Moisture 44.6F - 60F - 95 - - - - 32 mhos 3039 - None None - -
06/21/2018 06:10 Trace Moisture 44.6F - 60F - 95 - - - - 32 mhos 2982 - None None - -
06/21/2018 06:03 Trace Moisture 44.6F - 60F - 95 - - - - 31 mhos 2927 - None None - -
06/21/2018 05:55 Trace Moisture 44.6F - 60F - 95 - - - - 32 mhos 3001 - None None - -
06/21/2018 05:53 Trace Moisture 44.6F - 60F - 95 - - - - 32 mhos 3020 - None None - -
06/21/2018 05:43 Trace Moisture 44.8F - 60F - 95 - - - - 32 mhos 3014 - None None - -
Date/Time
(MDT)
Sf
Temp Chem Water Layer Surface Precipitation
Sfc Pvt Sub Frz Factor Pct Dpth DpthThk IcePct Cond Salin FI Type Intens Accum Rate
06/21/2018 05:40 Trace Moisture 44.8F - 60F - 95 - - - - 32 mhos 3052 - None None - -
06/21/2018 05:33 Trace Moisture 45.0F - 60F - 95 - - - - 32 mhos 3020 - None None - -
06/21/2018 05:25 Trace Moisture 45.1F - 60F - 95 - - - - 31 mhos 2885 - None None - -
06/21/2018 05:22 Trace Moisture 45.1F - 60F - 95 - - - - 31 mhos 2939 - None None - -
06/21/2018 05:12 Trace Moisture 45.3F - 60F - 95 - - - - 32 mhos 3027 - None None - -
06/21/2018 05:10 Trace Moisture 45.5F - 60F - 95 - - - - 32 mhos 2986 - None None - -
06/21/2018 05:02 Trace Moisture 45.5F - 60F - 95 - - - - 33 mhos 3040 - None None - -
06/21/2018 04:55 Trace Moisture 45.9F - 60F - 95 - - - - 32 mhos 3008 - None None - -
06/21/2018 04:52 Trace Moisture 45.9F - 60F - 95 - - - - 32 mhos 2970 - None None - -
06/21/2018 04:42 Trace Moisture 46.2F - 60F - 95 - - - - 32 mhos 2976 - None None - -
06/21/2018 04:40 Trace Moisture 46.2F - 60F - 95 - - - - 33 mhos 3015 - None None - -
06/21/2018 04:32 Trace Moisture 46.2F - 60F - 95 - - - - 32 mhos 2933 - None None - -
06/21/2018 04:25 Trace Moisture 46.4F - 60F - 95 - - - - 33 mhos 3041 - None None - -
06/21/2018 04:22 Trace Moisture 46.6F - 60F - 95 - - - - 32 mhos 2977 - None None - -
06/21/2018 04:12 Trace Moisture 47.1F - 60F - 95 - - - - 33 mhos 2997 - None None - -
Date/Time
(MDT)
Sf
Temp Chem Water Layer Surface Precipitation
Sfc Pvt Sub Frz Factor Pct Dpth DpthThk IcePct Cond Salin FI Type Intens Accum Rate
06/21/2018 04:10 Trace Moisture 47.1F - 60F - 95 - - - - 32 mhos 2959 - None None - -
06/21/2018 04:02 Trace Moisture 47.5F - 60F - 95 - - - - 33 mhos 3004 - None None - -
06/21/2018 03:55 Trace Moisture 47.5F - 61F - 95 - - - - 33 mhos 3058 - None None - -
06/21/2018 03:52 Trace Moisture 47.7F - 61F - 95 - - - - 33 mhos 3035 - None None - -
06/21/2018 03:42 Trace Moisture 48.2F - 61F - 95 - - - - 33 mhos 2936 - None None - -
06/21/2018 03:40 Trace Moisture 48.0F - 61F - 95 - - - - 33 mhos 2978 - None None - -
06/21/2018 03:32 Trace Moisture 48.7F - 61F - 95 - - - - 33 mhos 2970 - None None - -
06/21/2018 03:25 Trace Moisture 48.7F - 61F - 95 - - - - 33 mhos 2989 - None None - -
06/21/2018 03:22 Trace Moisture 48.9F - 61F - 95 - - - - 33 mhos 2944 - None None - -
06/21/2018 03:12 Trace Moisture 48.4F - 61F - 95 - - - - 33 mhos 3025 - None None - -
06/21/2018 03:10 Trace Moisture 48.4F - 61F - 95 - - - - 33 mhos 3027 - None None - -
06/21/2018 03:02 Trace Moisture 48.4F - 61F - 95 - - - - 33 mhos 3027 - None None - -
06/21/2018 02:55 Trace Moisture 48.6F - 61F - 95 - - - - 33 mhos 3021 - None None - -
06/21/2018 02:51 Trace Moisture 48.7F - 61F - 95 - - - - 33 mhos 2995 - None None - -
06/21/2018 02:41 Trace Moisture 48.7F - 61F - 95 - - - - 33 mhos 3015 - None None - -
Date/Time
(MDT)
Sf
Temp Chem Water Layer Surface Precipitation
Sfc Pvt Sub Frz Factor Pct Dpth DpthThk IcePct Cond Salin FI Type Intens Accum Rate
06/21/2018 02:40 Trace Moisture 48.7F - 61F - 95 - - - - 33 mhos 3009 - None None - -
06/21/2018 02:31 Trace Moisture 48.9F - 61F - 95 - - - - 34 mhos 3085 - None None - -
06/21/2018 02:25 Trace Moisture 49.1F - 61F - 95 - - - - 34 mhos 3078 - None None - -
06/21/2018 02:21 Trace Moisture 49.5F - 61F - 95 - - - - 34 mhos 3005 - None None - -
06/21/2018 02:11 Trace Moisture 49.6F - 61F - 95 - - - - 34 mhos 3060 - None None - -
06/21/2018 02:11 Trace Moisture 49.6F - 61F - 95 - - - - 34 mhos 3060 - None None - -
06/21/2018 02:01 Dry 50.0F - 61F - - - - - - 35 mhos 3090 - None None - -
06/21/2018 01:55 Dry 50.2F - 61F - - - - - - 35 mhos 3078 - None None - -
06/21/2018 01:51 Trace Moisture 50.4F - 61F - 95 - - - - 34 mhos 3051 - None None - -
06/21/2018 01:41 Dry 50.9F - 61F - - - - - - 34 mhos 3033 - None None - -
06/21/2018 01:40 Trace Moisture 50.7F - 61F - 95 - - - - 34 mhos 3036 - None None - -
06/21/2018 01:31 Dry 51.1F - 61F - - - - - - 35 mhos 3046 - None None - -
06/21/2018 01:25 Dry 51.4F - 61F - - - - - - 34 mhos 3010 - None None - -
06/21/2018 01:21 Dry 51.6F - 61F - - - - - - 35 mhos 3066 - None None - -
06/21/2018 01:11 Dry 52.2F - 61F - - - - - - 35 mhos 3070 - None None - -
Date/Time
(MDT)
Sf
Temp Chem Water Layer Surface Precipitation
Sfc Pvt Sub Frz Factor Pct Dpth DpthThk IcePct Cond Salin FI Type Intens Accum Rate
06/21/2018 01:10 Dry 52.2F - 61F - - - - - - 35 mhos 3070 - None None - -
06/21/2018 01:01 Dry 52.5F - 61F - - - - - - 35 mhos 3031 - None None - -
06/21/2018 00:55 Dry 53.1F - 61F - - - - - - 35 mhos 3035 - None None - -
06/21/2018 00:51 Dry 53.4F - 61F - - - - - - 35 mhos 3024 - None None - -
06/21/2018 00:41 Dry 54.0F - 61F - - - - - - 35 mhos 3001 - None None - -
06/21/2018 00:40 Dry 54.1F - 61F - - - - - - 35 mhos 2995 - None None - -
06/21/2018 00:31 Dry 54.9F - 61F - - - - - - 36 mhos 2994 - None None - -
06/21/2018 00:25 Dry 55.2F - 61F - - - - - - 36 mhos 3001 - None None - -
06/21/2018 00:21 Dry 55.4F - 61F - - - - - - 36 mhos 3014 - None None - -
06/21/2018 00:11 Dry 55.8F - 61F - - - - - - 36 mhos 3003 - None None - -
06/21/2018 00:10 Dry 55.9F - 61F - - - - - - 36 mhos 3019 - None None - -
06/21/2018 00:00 Dry 56.1F - 61F - - - - - - 36 mhos 3013 - None None - -
06/20/2018 23:55 Dry 56.3F - 61F - - - - - - 36 mhos 3002 - None None - -
06/20/2018 23:50 Dry 56.3F - 61F - - - - - - 36 mhos 3002 - None None - -
06/20/2018 23:40 Dry 57.0F - 61F - - - - - - 36 mhos 2980 - None None - -
Date/Time
(MDT)
Sf
Temp Chem Water Layer Surface Precipitation
Sfc Pvt Sub Frz Factor Pct Dpth DpthThk IcePct Cond Salin FI Type Intens Accum Rate
06/20/2018 23:40 Dry 57.0F - 61F - - - - - - 36 mhos 2980 - None None - -
06/20/2018 23:30 Dry 57.2F - 61F - - - - - - 36 mhos 2975 - None None - -
06/20/2018 23:25 Dry 57.0F - 61F - - - - - - 36 mhos 2980 - None None - -
06/20/2018 23:20 Dry 57.0F - 61F - - - - - - 36 mhos 3000 - None None - -
06/20/2018 23:10 Dry 57.4F - 61F - - - - - - 36 mhos 2986 - None None - -
06/20/2018 23:10 Dry 57.4F - 61F - - - - - - 36 mhos 2986 - None None - -
06/20/2018 23:00 Dry 57.9F - 61F - - - - - - 36 mhos 2970 - None None - -
06/20/2018 22:55 Dry 58.1F - 61F - - - - - - 36 mhos 2964 - None None - -
06/20/2018 22:50 Dry 58.5F - 60F - - - - - - 37 mhos 2975 - None None - -
06/20/2018 22:40 Dry 59.0F - 60F - - - - - - 37 mhos 2954 - None None - -
06/20/2018 22:40 Dry 59.0F - 60F - - - - - - 37 mhos 2954 - None None - -
06/20/2018 22:30 Dry 59.2F - 60F - - - - - - 37 mhos 2949 - None None - -
06/20/2018 22:25 Dry 59.2F - 60F - - - - - - 37 mhos 2952 - None None - -
06/20/2018 22:20 Dry 59.2F - 60F - - - - - - 37 mhos 2949 - None None - -
06/20/2018 22:10 Dry 59.7F - 60F - - - - - - 37 mhos 2933 - None None - -
Date/Time
(MDT)
Sf
Temp Chem Water Layer Surface Precipitation
Sfc Pvt Sub Frz Factor Pct Dpth DpthThk IcePct Cond Salin FI Type Intens Accum Rate
06/20/2018 22:10 Dry 59.7F - 60F - - - - - - 37 mhos 2933 - None None - -
06/20/2018 22:00 Dry 60.3F - 60F - - - - - - 37 mhos 2934 - None None - -
06/20/2018 21:55 Dry 60.6F - 60F - - - - - - 37 mhos 2924 - None None - -
06/20/2018 21:50 Dry 61.2F - 60F - - - - - - 37 mhos 2904 - None None - -
06/20/2018 21:40 Dry 61.9F - 60F - - - - - - 37 mhos 2884 - None None - -
06/20/2018 21:40 Dry 61.9F - 60F - - - - - - 37 mhos 2884 - None None - -
06/20/2018 21:30 Dry 62.1F - 60F - - - - - - 37 mhos 2877 - None None - -
06/20/2018 21:25 Dry 62.2F - 60F - - - - - - 37 mhos 2869 - None None - -
06/20/2018 21:19 Dry 62.4F - 60F - - - - - - 37 mhos 2864 - None None - -
06/20/2018 21:10 Dry 63.3F - 60F - - - - - - 37 mhos 2835 - None None - -
06/20/2018 21:09 Dry 63.5F - 60F - - - - - - 37 mhos 2831 - None None - -
06/20/2018 20:59 Dry 64.2F - 60F - - - - - - 37 mhos 2810 - None None - -
06/20/2018 20:55 Dry 64.4F - 60F - - - - - - 37 mhos 2802 - None None - -
06/20/2018 20:49 Dry 65.1F - 60F - - - - - - 37 mhos 2784 - None None - -
06/20/2018 20:40 Dry 66.4F - 60F - - - - - - 37 mhos 2748 - None None - -
Date/Time
(MDT)
Sf
Temp Chem Water Layer Surface Precipitation
Sfc Pvt Sub Frz Factor Pct Dpth DpthThk IcePct Cond Salin FI Type Intens Accum Rate
06/20/2018 20:39 Dry 66.7F - 60F - - - - - - 37 mhos 2739 - None None - -
06/20/2018 20:29 Dry 68.7F - 60F - - - - - - 37 mhos 2663 - None None - -
06/20/2018 20:25 Dry 69.3F - 60F - - - - - - 37 mhos 2647 - None None - -
06/20/2018 20:19 Dry 70.2F - 59F - - - - - - 37 mhos 2626 - None None - -
06/20/2018 20:10 Dry 71.2F - 59F - - - - - - 36 mhos 2575 - None None - -
06/20/2018 20:09 Dry 71.6F - 59F - - - - - - 36 mhos 2567 - None None - -
06/20/2018 19:59 Dry 72.9F - 59F - - - - - - 36 mhos 2536 - None None - -
06/20/2018 19:49 Dry 74.1F - 59F - - - - - - 36 mhos 2489 - None None - -
06/20/2018 19:40 Dry 74.8F - 59F - - - - - - 36 mhos 2470 - None None - -
06/20/2018 19:39 Dry 75.0F - 59F - - - - - - 36 mhos 2467 - None None - -
06/20/2018 19:29 Dry 76.5F - 59F - - - - - - 36 mhos 2416 - None None - -
06/20/2018 19:25 Dry 77.0F - 59F - - - - - - 36 mhos 2404 - None None - -
06/20/2018 19:19 Dry 77.7F - 59F - - - - - - 36 mhos 2370 - None None - -
06/20/2018 19:10 Dry 78.6F - 59F - - - - - - 36 mhos 2350 - None None - -
06/20/2018 19:09 Dry 78.6F - 59F - - - - - - 36 mhos 2350 - None None - -
Date/Time
(MDT)
Sf
Temp Chem Water Layer Surface Precipitation
Sfc Pvt Sub Frz Factor Pct Dpth DpthThk IcePct Cond Salin FI Type Intens Accum Rate
06/20/2018 18:59 Dry 79.9F - 59F - - - - - - 36 mhos 2308 - None None - -
06/20/2018 18:55 Dry 80.2F - 59F - - - - - - 36 mhos 2302 - None None - -
06/20/2018 18:49 Dry 80.6F - 59F - - - - - - 36 mhos 2295 - None None - -
06/20/2018 18:40 Dry 82.4F - 59F - - - - - - 35 mhos 2242 - None None - -
06/20/2018 18:38 Dry 82.2F - 59F - - - - - - 35 mhos 2246 - None None - -
06/20/2018 18:28 Dry 82.2F - 59F - - - - - - 35 mhos 2246 - None None - -
06/20/2018 18:25 Dry 81.3F - 59F - - - - - - 35 mhos 2264 - None None - -
06/20/2018 18:18 Dry 79.2F - 58F - - - - - - 36 mhos 2324 - None None - -
06/20/2018 18:10 Dry 82.4F - 58F - - - - - - 35 mhos 2242 - None None - -
06/20/2018 18:08 Dry 82.4F - 58F - - - - - - 35 mhos 2242 - None None - -
06/20/2018 17:58 Dry 78.1F - 58F - - - - - - 36 mhos 2347 - None None - -
06/20/2018 17:55 Dry 78.4F - 58F - - - - - - 36 mhos 2341 - None None - -
06/20/2018 17:48 Dry 79.2F - 58F - - - - - - 35 mhos 2308 - None None - -
06/20/2018 17:40 Dry 86.2F - 58F - - - - - - 35 mhos 2126 - None None - -
06/20/2018 17:38 Dry 88.0F - 58F - - - - - - 35 mhos 2094 - None None - -
Date/Time
(MDT)
Sf
Temp Chem Water Layer Surface Precipitation
Sfc Pvt Sub Frz Factor Pct Dpth DpthThk IcePct Cond Salin FI Type Intens Accum Rate
06/20/2018 17:28 Dry 78.3F - 58F - - - - - - 36 mhos 2344 - None None - -
06/20/2018 17:25 Error - - 58F - - - - - - - - - None None - -
06/20/2018 17:18 Dry 79.7F - 58F - - - - - - 35 mhos 2296 - None None - -
06/20/2018 17:10 Dry 81.7F - 58F - - - - - - 35 mhos 2240 - None None - -
06/20/2018 17:08 Dry 82.2F - 58F - - - - - - 35 mhos 2230 - None None - -
06/20/2018 16:58 Dry 84.7F - 58F - - - - - - 35 mhos 2169 - None None - -
06/20/2018 16:55 Dry 86.7F - 58F - - - - - - 35 mhos 2115 - None None - -
06/20/2018 16:48 Dry 87.4F - 58F - - - - - - 35 mhos 2103 - None None - -
06/20/2018 16:40 Dry 84.0F - 58F - - - - - - 35 mhos 2209 - None None - -
06/20/2018 16:38 Dry 80.6F - 58F - - - - - - 36 mhos 2295 - None None - -
06/20/2018 16:28 Dry 80.4F - 58F - - - - - - 35 mhos 2283 - None None - -
06/20/2018 16:25 Dry 83.7F - 58F - - - - - - 35 mhos 2186 - None None - -
06/20/2018 16:18 Dry 87.6F - 58F - - - - - - 35 mhos 2115 - None None - -
06/20/2018 16:10 Dry 84.6F - 58F - - - - - - 1 mhos 44 - None None - -
06/20/2018 16:08 Dry 82.6F - 58F - - - - - - 1 mhos 44 - None None - -
Date/Time
(MDT)
Sf
Temp Chem Water Layer Surface Precipitation
Sfc Pvt Sub Frz Factor Pct Dpth DpthThk IcePct Cond Salin FI Type Intens Accum Rate
06/20/2018 15:58 Dry 73.6F - 58F - - - - - - 1 mhos 51 - None None - -
06/20/2018 15:55 Wet 72.0F - 58F 32F 5 1% 0.70 in - 0% 4 mhos 233 - Yes - - -
06/20/2018 15:47 Wet 68.4F - 58F 31F 5 5% 0.00 in - 0% 21 mhos 1491 - Yes - - -
06/20/2018 15:40 Wet 65.5F - 57F 25F 5 19% 0.00 in - 0% 66 mhos 5560 - None None - -
06/20/2018 15:37 Wet 65.5F - 57F 26F 5 18% 0.00 in - 0% 65 mhos 5399 - Yes - - -
06/20/2018 15:27 Wet 66.9F - 57F 32F 5 0% 0.70 in - 0% 0 mhos 31 - Yes - - -
06/20/2018 15:25 Wet 68.2F - 57F 32F 5 0% 0.00 in - 0% 1 mhos 37 - Yes - - -
06/20/2018 15:17 Dry 69.1F - 57F - - - - - - 36 mhos 2613 - None None - -
06/20/2018 15:10 Wet 68.9F - 57F 32F 5 0% 0.70 in - 0% 0 mhos 30 - Yes - - -
06/20/2018 15:07 Dry 70.2F - 57F - - - - - - 1 mhos 51 - Yes - - -
06/20/2018 14:57 Error - - 57F - - - - - - - - - Yes - - -
06/20/2018 14:55 Error - - 57F - - - - - - - - - Yes - - -
06/20/2018 14:47 Error - - 57F - - - - - - - - - None None - -
06/20/2018 14:40 Error - - 57F - - - - - - - - - Yes - - -
06/20/2018 14:37 Error - - 57F - - - - - - - - - None None - -
Date/Time
(MDT)
Sf
Temp Chem Water Layer Surface Precipitation
Sfc Pvt Sub Frz Factor Pct Dpth DpthThk IcePct Cond Salin FI Type Intens Accum Rate
06/20/2018 14:27 Error - - 57F - - - - - - - - - None None - -
06/20/2018 14:25 Error - - 57F - - - - - - - - - None None - -
06/20/2018 14:17 Dry 71.8F - 57F - - - - - - 36 mhos 2563 - None None - -
06/20/2018 14:10 Dry 71.4F - 57F - - - - - - 36 mhos 2571 - None None - -
06/20/2018 14:07 Dry 71.1F - 57F - - - - - - 36 mhos 2583 - None None - -
06/20/2018 13:57 Dry 71.6F - 57F - - - - - - 36 mhos 2567 - None None - -
06/20/2018 13:55 Dry 71.1F - 57F - - - - - - 36 mhos 2565 - None None - -
06/20/2018 13:47 Error - - 57F - - - - - - - - - Yes - - -
06/20/2018 13:40 Error - - 57F - - - - - - - - - Yes - - -
06/20/2018 13:37 Error - - 56F - - - - - - - - - Yes - - -
06/20/2018 13:27 Error - - 56F - - - - - - - - - None None - -
06/20/2018 13:25 Error - - 56F - - - - - - - - - None None - -
06/20/2018 13:17 Error - - 56F - - - - - - - - - None None - -
06/20/2018 13:10 Dry 72.3F - 56F - - - - - - 36 mhos 2530 - None None - -
06/20/2018 13:07 Dry 71.6F - 56F - - - - - - 36 mhos 2549 - None None - -
Date/Time
(MDT)
Sf
Temp Chem Water Layer Surface Precipitation
Sfc Pvt Sub Frz Factor Pct Dpth DpthThk IcePct Cond Salin FI Type Intens Accum Rate
06/20/2018 12:57 Error - - 56F - - - - - - - - - Yes - - -
06/20/2018 12:55 Error - - 56F - - - - - - - - - Yes - - -
06/20/2018 12:47 Error - - 56F - - - - - - - - - None None - -
06/20/2018 12:40 Error - - 56F - - - - - - - - - None None - -
06/20/2018 12:37 Error - - 56F - - - - - - - - - None None - -
06/20/2018 12:27 Error - - 56F - - - - - - - - - None None - -
06/20/2018 12:25 Error - - 56F - - - - - - - - - None None - -
06/20/2018 12:17 Dry 73.8F - 56F - - - - - - 36 mhos 2496 - None None - -
06/20/2018 12:10 Dry 72.7F - 56F - - - - - - 36 mhos 2540 - None None - -
06/20/2018 12:07 Dry 72.7F - 56F - - - - - - 36 mhos 2540 - None None - -
06/20/2018 11:57 Dry 73.4F - 56F - - - - - - 36 mhos 2504 - None None - -
06/20/2018 11:55 Dry 73.6F - 56F - - - - - - 36 mhos 2500 - None None - -
06/20/2018 11:47 Dry 74.1F - 56F - - - - - - 36 mhos 2489 - None None - -
06/20/2018 11:40 Dry 73.6F - 56F - - - - - - 36 mhos 2500 - None None - -
06/20/2018 11:36 Dry 73.6F - 56F - - - - - - 36 mhos 2500 - None None - -
Date/Time
(MDT)
Sf
Temp Chem Water Layer Surface Precipitation
Sfc Pvt Sub Frz Factor Pct Dpth DpthThk IcePct Cond Salin FI Type Intens Accum Rate
06/20/2018 11:26 Dry 74.5F - 56F - - - - - - 36 mhos 2499 - None None - -
06/20/2018 11:25 Dry 74.3F - 56F - - - - - - 36 mhos 2503 - None None - -
06/20/2018 11:16 Dry 73.8F - 56F - - - - - - 36 mhos 2514 - None None - -
06/20/2018 11:10 Dry 73.8F - 56F - - - - - - 36 mhos 2514 - None None - -
06/20/2018 11:06 Dry 74.3F - 56F - - - - - - 36 mhos 2485 - None None - -
06/20/2018 10:56 Dry 74.5F - 56F - - - - - - 36 mhos 2478 - None None - -
06/20/2018 10:55 Dry 74.5F - 56F - - - - - - 36 mhos 2478 - None None - -
06/20/2018 10:46 Error - - 56F - - - - - - - - - None None - -
06/20/2018 10:40 Dry 73.2F - 56F - - - - - - 36 mhos 2529 - None None - -
06/20/2018 10:36 Dry 72.9F - 56F - - - - - - 36 mhos 2536 - None None - -
06/20/2018 10:26 Dry 73.2F - 56F - - - - - - 36 mhos 2529 - None None - -
06/20/2018 10:25 Dry 73.2F - 56F - - - - - - 36 mhos 2529 - None None - -
06/20/2018 10:16 Dry 71.4F - 56F - - - - - - 36 mhos 2571 - None None - -
Change End Date:

Copyright © 1998-2015 Vaisala, Inc.
All Rights Reserved
Send comments about the data to:
SCAN Web ® is a registered trademark of Vaisala, Inc.
SCAN Web Version 6.0